Time;durP1;ratioP1;P1;durP2;ratioP2;P2;SDS_P1;SDS_P2;PMS_P1;PMS_P2;Temp;Humidity;BMP_temperature;BMP_pressure;BME280_temperature;BME280_humidity;BME280_pressure;Samples;Min_cycle;Max_cycle;Signal;HPM_P1;HPM_P2
2022/03/04 00:00:52;;;;;;;;;;;128.80;2048.00;;;;;;5046913;28;19905;-80
2022/03/04 00:03:17;;;;;;;;;;;128.70;2048.00;;;;;;5045613;28;19936;-80
2022/03/04 00:05:43;;;;;;;;;;;128.60;2048.00;;;;;;5044169;28;19921;-79
2022/03/04 00:08:09;;;;;;;;;;;128.40;2048.00;;;;;;5044479;28;19927;-81
2022/03/04 00:10:35;;;;;;;;;;;128.20;2099.20;;;;;;5044804;28;19917;-78
2022/03/04 00:13:01;;;;;;;;;;;128.10;2124.80;;;;;;5045320;28;19908;-78
2022/03/04 00:15:27;;;;;;;;;;;128.00;2124.80;;;;;;5046579;28;19924;-78
2022/03/04 00:17:52;;;;;;;;;;;103.30;2099.20;;;;;;5046603;28;20410;-82
2022/03/04 00:20:18;;;;;;;;;;;103.30;2124.80;;;;;;5045343;28;20003;-80
2022/03/04 00:22:44;;;;;;;;;;;103.20;2150.40;;;;;;5047210;28;20278;-78
2022/03/04 00:25:10;;;;;;;;;;;103.30;2124.80;;;;;;5045540;28;19911;-82
2022/03/04 00:27:36;;;;;;;;;;;128.10;2150.40;;;;;;5045705;28;19940;-80
2022/03/04 00:30:02;;;;;;;;;;;128.20;2099.20;;;;;;5045444;28;20319;-78
2022/03/04 00:32:29;;;;;;;;;;;128.40;2073.60;;;;;;5044109;28;19904;-78
2022/03/04 00:34:54;;;;;;;;;;;128.20;2099.20;;;;;;5043482;28;19912;-78
2022/03/04 00:37:20;;;;;;;;;;;128.10;2124.80;;;;;;5045453;28;19905;-80
2022/03/04 00:39:45;;;;;;;;;;;128.10;2124.80;;;;;;5045937;28;19959;-80
2022/03/04 00:42:11;;;;;;;;;;;128.30;2099.20;;;;;;5043544;28;19908;-79
2022/03/04 00:44:36;;;;;;;;;;;128.20;2073.60;;;;;;5043993;28;20351;-80
2022/03/04 00:47:04;;;;;;;;;;;128.00;2099.20;;;;;;5044829;28;19940;-78
2022/03/04 00:49:29;;;;;;;;;;;128.10;2099.20;;;;;;5046012;28;19917;-81
2022/03/04 00:51:55;;;;;;;;;;;103.20;2099.20;;;;;;5046752;28;19912;-81
2022/03/04 00:54:20;;;;;;;;;;;103.10;2124.80;;;;;;5043784;28;19912;-80
2022/03/04 00:56:46;;;;;;;;;;;103.20;2099.20;;;;;;5044732;28;19905;-81
2022/03/04 00:59:12;;;;;;;;;;;103.10;2099.20;;;;;;5043276;28;19905;-81
2022/03/04 01:01:37;;;;;;;;;;;103.10;2099.20;;;;;;5046411;28;19927;-81
2022/03/04 01:04:03;;;;;;;;;;;103.10;2099.20;;;;;;5046735;28;20025;-79
2022/03/04 01:06:29;;;;;;;;;;;103.00;2124.80;;;;;;5040061;28;19905;-78
2022/03/04 01:08:54;;;;;;;;;;;103.00;2124.80;;;;;;5041431;28;19914;-78
2022/03/04 01:11:20;;;;;;;;;;;103.00;2124.80;;;;;;5042657;28;20382;-81
2022/03/04 01:13:46;;;;;;;;;;;103.00;2124.80;;;;;;5044826;28;19909;-81
2022/03/04 01:16:11;;;;;;;;;;;103.00;2124.80;;;;;;5042597;28;20252;-78
2022/03/04 01:18:37;;;;;;;;;;;102.90;2124.80;;;;;;5042728;28;19958;-80
2022/03/04 01:21:03;;;;;;;;;;;102.80;2124.80;;;;;;5044396;28;19916;-78
2022/03/04 01:23:28;;;;;;;;;;;102.70;2124.80;;;;;;5043629;28;19904;-78
2022/03/04 01:25:55;;;;;;;;;;;102.80;2099.20;;;;;;5045826;28;20282;-78
2022/03/04 01:28:21;;;;;;;;;;;102.80;2099.20;;;;;;5045725;28;19944;-80
2022/03/04 01:30:47;;;;;;;;;;;102.80;2073.60;;;;;;5042449;28;19944;-81
2022/03/04 01:33:13;;;;;;;;;;;102.90;2048.00;;;;;;5046489;28;20278;-80
2022/03/04 01:35:38;;;;;;;;;;;102.80;2048.00;;;;;;5043227;28;19912;-81
2022/03/04 01:38:04;;;;;;;;;;;102.70;2048.00;;;;;;5045207;28;19905;-77
2022/03/04 01:40:29;;;;;;;;;;;102.80;2048.00;;;;;;5042414;28;19904;-81
2022/03/04 01:42:55;;;;;;;;;;;102.80;2048.00;;;;;;5044711;28;20337;-79
2022/03/04 01:45:22;;;;;;;;;;;102.80;2022.40;;;;;;5043570;28;19917;-80
2022/03/04 01:47:48;;;;;;;;;;;102.90;1996.80;;;;;;5045774;28;19905;-78
2022/03/04 01:50:13;;;;;;;;;;;102.80;1971.20;;;;;;5042311;28;19963;-78
2022/03/04 01:52:39;;;;;;;;;;;103.00;1971.20;;;;;;5043532;28;19995;-81
2022/03/04 01:55:05;;;;;;;;;;;103.10;1945.60;;;;;;5040094;28;19912;-80
2022/03/04 01:57:31;;;;;;;;;;;103.10;1920.00;;;;;;5038604;28;19935;-78
2022/03/04 01:59:56;;;;;;;;;;;103.30;1920.00;;;;;;5042254;28;19905;-78
2022/03/04 02:02:22;;;;;;;;;;;103.20;1894.40;;;;;;5043873;28;19972;-79
2022/03/04 02:04:51;;;;;;;;;;;103.20;1894.40;;;;;;5046854;28;20003;-81
2022/03/04 02:07:17;;;;;;;;;;;103.20;1894.40;;;;;;5046872;28;19904;-81
2022/03/04 02:09:44;;;;;;;;;;;103.20;1894.40;;;;;;5042865;28;19928;-78
2022/03/04 02:12:09;;;;;;;;;;;103.10;1894.40;;;;;;5043632;28;19909;-80
2022/03/04 02:14:35;;;;;;;;;;;103.20;1894.40;;;;;;5038975;28;19956;-79
2022/03/04 02:17:01;;;;;;;;;;;103.00;1894.40;;;;;;5046161;28;19963;-78
2022/03/04 02:19:26;;;;;;;;;;;103.10;1894.40;;;;;;5044000;28;19908;-80
2022/03/04 02:21:56;;;;;;;;;;;103.00;1894.40;;;;;;5045001;28;20057;-80
2022/03/04 02:24:23;;;;;;;;;;;103.00;1894.40;;;;;;5041775;28;19932;-78
2022/03/04 02:26:49;;;;;;;;;;;103.00;1894.40;;;;;;5045018;28;19911;-81
2022/03/04 02:29:14;;;;;;;;;;;103.00;1945.60;;;;;;5043138;28;19905;-80
2022/03/04 02:31:40;;;;;;;;;;;102.90;1971.20;;;;;;5041854;28;19966;-78
2022/03/04 02:34:06;;;;;;;;;;;102.90;1996.80;;;;;;5044253;28;19955;-80
2022/03/04 02:36:32;;;;;;;;;;;102.90;1996.80;;;;;;5043934;28;19904;-80
2022/03/04 02:38:58;;;;;;;;;;;102.90;1971.20;;;;;;5041801;28;19909;-78
2022/03/04 02:41:23;;;;;;;;;;;103.00;1971.20;;;;;;5043793;28;19919;-78
2022/03/04 02:43:49;;;;;;;;;;;102.90;1996.80;;;;;;5037600;28;19951;-78
2022/03/04 02:46:16;;;;;;;;;;;102.90;1996.80;;;;;;5041536;28;19917;-79
2022/03/04 02:48:41;;;;;;;;;;;102.90;1996.80;;;;;;5045697;28;19904;-81
2022/03/04 02:51:07;;;;;;;;;;;103.00;1996.80;;;;;;5044531;28;19913;-78
2022/03/04 02:53:33;;;;;;;;;;;103.00;1996.80;;;;;;5040196;28;19905;-81
2022/03/04 02:55:58;;;;;;;;;;;102.90;1996.80;;;;;;5041526;28;19905;-79
2022/03/04 02:58:25;;;;;;;;;;;102.90;2022.40;;;;;;5045452;28;19905;-79
2022/03/04 03:00:51;;;;;;;;;;;103.00;1996.80;;;;;;5044247;28;19999;-78
2022/03/04 03:03:16;;;;;;;;;;;102.90;2022.40;;;;;;5041322;28;19940;-78
2022/03/04 03:05:42;;;;;;;;;;;102.80;2073.60;;;;;;5040678;28;19917;-80
2022/03/04 03:08:08;;;;;;;;;;;102.80;2073.60;;;;;;5039813;28;19955;-78
2022/03/04 03:10:34;;;;;;;;;;;102.80;2048.00;;;;;;5043011;28;19924;-80
2022/03/04 03:12:59;;;;;;;;;;;102.80;2048.00;;;;;;5041081;28;20355;-78
2022/03/04 03:15:25;;;;;;;;;;;102.70;2048.00;;;;;;5040074;28;19913;-78
2022/03/04 03:17:51;;;;;;;;;;;102.50;2073.60;;;;;;5042970;28;20010;-78
2022/03/04 03:20:17;;;;;;;;;;;102.50;2073.60;;;;;;5042283;28;20050;-78
2022/03/04 03:22:42;;;;;;;;;;;77.60;2073.60;;;;;;5039212;28;19948;-80
2022/03/04 03:25:08;;;;;;;;;;;77.70;2073.60;;;;;;5043243;28;20347;-80
2022/03/04 03:27:34;;;;;;;;;;;77.70;2048.00;;;;;;5043045;28;19913;-78
2022/03/04 03:29:59;;;;;;;;;;;77.70;2022.40;;;;;;5041078;28;19913;-80
2022/03/04 03:32:25;;;;;;;;;;;77.60;2048.00;;;;;;5042169;28;19909;-77
2022/03/04 03:34:51;;;;;;;;;;;77.50;2048.00;;;;;;5041839;28;19996;-78
2022/03/04 03:37:17;;;;;;;;;;;77.50;2048.00;;;;;;5041833;28;19904;-78
2022/03/04 03:39:42;;;;;;;;;;;77.60;2048.00;;;;;;5042223;28;19909;-78
2022/03/04 03:42:08;;;;;;;;;;;77.70;2022.40;;;;;;5043638;28;19905;-79
2022/03/04 03:44:34;;;;;;;;;;;102.40;1996.80;;;;;;5042769;28;19913;-78
2022/03/04 03:46:59;;;;;;;;;;;102.40;1996.80;;;;;;5040814;28;19912;-80
2022/03/04 03:49:25;;;;;;;;;;;102.50;1996.80;;;;;;5044077;28;19959;-78
2022/03/04 03:51:51;;;;;;;;;;;102.50;1971.20;;;;;;5043699;28;19912;-78
2022/03/04 03:54:16;;;;;;;;;;;102.60;1971.20;;;;;;5041200;28;19904;-78
2022/03/04 03:56:42;;;;;;;;;;;102.50;1971.20;;;;;;5044219;28;19912;-80
2022/03/04 03:59:08;;;;;;;;;;;102.40;1971.20;;;;;;5042971;28;19944;-80
2022/03/04 04:01:34;;;;;;;;;;;77.70;1996.80;;;;;;5042577;28;20050;-78
2022/03/04 04:03:59;;;;;;;;;;;77.60;2022.40;;;;;;5042836;28;20382;-80
2022/03/04 04:06:25;;;;;;;;;;;77.40;2022.40;;;;;;5044047;28;19912;-77
2022/03/04 04:08:51;;;;;;;;;;;77.40;2022.40;;;;;;5043933;28;19909;-80
2022/03/04 04:11:16;;;;;;;;;;;77.50;2022.40;;;;;;5044087;28;19916;-78
2022/03/04 04:13:42;;;;;;;;;;;77.60;2022.40;;;;;;5044440;28;19951;-80
2022/03/04 04:16:07;;;;;;;;;;;77.50;2022.40;;;;;;5042317;28;19908;-78
2022/03/04 04:18:33;;;;;;;;;;;77.50;2022.40;;;;;;5032961;28;19916;-79
2022/03/04 04:20:58;;;;;;;;;;;77.50;2022.40;;;;;;5044472;28;19905;-79
2022/03/04 04:23:24;;;;;;;;;;;77.60;2022.40;;;;;;5043466;28;19905;-78
2022/03/04 04:25:50;;;;;;;;;;;77.60;2022.40;;;;;;5046000;28;19912;-80
2022/03/04 04:28:15;;;;;;;;;;;77.60;2022.40;;;;;;5048036;28;19905;-79
2022/03/04 04:30:41;;;;;;;;;;;77.70;2022.40;;;;;;5043329;28;19917;-79
2022/03/04 04:33:06;;;;;;;;;;;102.40;2022.40;;;;;;5048781;28;20414;-79
2022/03/04 04:35:32;;;;;;;;;;;77.70;1996.80;;;;;;5040574;28;19912;-80
2022/03/04 04:37:57;;;;;;;;;;;77.60;2022.40;;;;;;5045401;28;19995;-78
2022/03/04 04:40:23;;;;;;;;;;;77.60;2048.00;;;;;;5046380;28;19909;-78
2022/03/04 04:42:49;;;;;;;;;;;77.70;2048.00;;;;;;5045475;28;20386;-79
2022/03/04 04:45:14;;;;;;;;;;;77.60;2048.00;;;;;;5047799;28;19909;-78
2022/03/04 04:47:40;;;;;;;;;;;77.40;2073.60;;;;;;5047001;28;19905;-79
2022/03/04 04:50:06;;;;;;;;;;;77.30;2099.20;;;;;;5043494;28;19917;-78
2022/03/04 04:52:32;;;;;;;;;;;77.30;2099.20;;;;;;5046485;28;19910;-78
2022/03/04 04:54:57;;;;;;;;;;;77.20;2124.80;;;;;;5045159;28;19963;-78
2022/03/04 04:57:23;;;;;;;;;;;77.10;2124.80;;;;;;5043503;28;20370;-77
2022/03/04 04:59:48;;;;;;;;;;;77.00;2150.40;;;;;;5045300;28;19927;-77
2022/03/04 05:02:14;;;;;;;;;;;77.00;2150.40;;;;;;5044389;28;19912;-77
2022/03/04 05:04:40;;;;;;;;;;;76.90;2150.40;;;;;;5043478;28;20421;-77
2022/03/04 05:07:05;;;;;;;;;;;77.00;2150.40;;;;;;5043226;28;19912;-79
2022/03/04 05:09:31;;;;;;;;;;;76.90;2150.40;;;;;;5047473;28;19913;-77
2022/03/04 05:11:56;;;;;;;;;;;77.00;2150.40;;;;;;5044111;28;19963;-78
2022/03/04 05:14:22;;;;;;;;;;;77.00;2150.40;;;;;;5045054;28;20282;-78
2022/03/04 05:16:48;;;;;;;;;;;77.10;2124.80;;;;;;5043018;28;19905;-78
2022/03/04 05:19:13;;;;;;;;;;;77.20;2124.80;;;;;;5044703;28;19931;-81
2022/03/04 05:21:39;;;;;;;;;;;77.20;2099.20;;;;;;5044864;28;19905;-79
2022/03/04 05:24:06;;;;;;;;;;;77.40;2099.20;;;;;;5040461;28;19905;-78
2022/03/04 05:26:39;;;;;;;;;;;77.30;2099.20;;;;;;5044766;28;19905;-78
2022/03/04 05:29:10;;;;;;;;;;;77.40;2073.60;;;;;;5046467;28;20274;-80
2022/03/04 05:31:37;;;;;;;;;;;77.40;2073.60;;;;;;5044039;28;19935;-78
2022/03/04 05:34:03;;;;;;;;;;;77.50;2073.60;;;;;;5046100;28;19905;-78
2022/03/04 05:36:28;;;;;;;;;;;77.60;2073.60;;;;;;5041218;28;20012;-78
2022/03/04 05:38:54;;;;;;;;;;;77.60;2073.60;;;;;;5044276;28;19955;-79
2022/03/04 05:41:20;;;;;;;;;;;77.70;2073.60;;;;;;5045910;28;19909;-80
2022/03/04 05:43:46;;;;;;;;;;;77.50;2073.60;;;;;;5042875;28;20363;-81
2022/03/04 05:46:13;;;;;;;;;;;77.30;2124.80;;;;;;5044481;28;19962;-78
2022/03/04 05:48:39;;;;;;;;;;;77.20;2124.80;;;;;;5044807;28;20050;-81
2022/03/04 05:51:05;;;;;;;;;;;77.20;2150.40;;;;;;5044950;28;19921;-79
2022/03/04 05:53:31;;;;;;;;;;;77.10;2150.40;;;;;;5042644;28;19905;-77
2022/03/04 05:55:57;;;;;;;;;;;76.90;2201.60;;;;;;5043821;28;20305;-79
2022/03/04 05:58:22;;;;;;;;;;;52.10;2227.20;;;;;;5045441;28;19959;-81
2022/03/04 06:00:48;;;;;;;;;;;52.10;2227.20;;;;;;5042023;28;20281;-81
2022/03/04 06:03:14;;;;;;;;;;;52.00;2227.20;;;;;;5042859;28;19909;-78
2022/03/04 06:05:39;;;;;;;;;;;52.00;2227.20;;;;;;5044894;28;20023;-78
2022/03/04 06:08:05;;;;;;;;;;;52.00;2227.20;;;;;;5042596;28;19920;-79
2022/03/04 06:10:30;;;;;;;;;;;51.90;2227.20;;;;;;5042179;28;20417;-77
2022/03/04 06:12:56;;;;;;;;;;;51.90;2227.20;;;;;;5044989;28;20004;-81
2022/03/04 06:15:22;;;;;;;;;;;51.90;2227.20;;;;;;5042377;28;19916;-77
2022/03/04 06:17:48;;;;;;;;;;;51.80;2227.20;;;;;;5041788;28;19905;-78
2022/03/04 06:20:14;;;;;;;;;;;51.80;2227.20;;;;;;5043941;28;19908;-78
2022/03/04 06:22:40;;;;;;;;;;;51.90;2227.20;;;;;;5035926;28;19905;-78
2022/03/04 06:25:06;;;;;;;;;;;51.90;2227.20;;;;;;5044183;28;19919;-79
2022/03/04 06:27:31;;;;;;;;;;;52.10;2227.20;;;;;;5040699;28;19983;-81
2022/03/04 06:29:57;;;;;;;;;;;77.00;2227.20;;;;;;5042329;28;19913;-78
2022/03/04 06:32:23;;;;;;;;;;;76.80;2227.20;;;;;;5043858;28;19912;-82
2022/03/04 06:34:48;;;;;;;;;;;51.90;2227.20;;;;;;5045209;28;19905;-82
2022/03/04 06:37:14;;;;;;;;;;;51.90;2227.20;;;;;;5046527;28;19909;-78
2022/03/04 06:39:40;;;;;;;;;;;76.90;2227.20;;;;;;5044245;28;19908;-82
2022/03/04 06:42:05;;;;;;;;;;;52.00;2227.20;;;;;;5044754;28;19955;-78
2022/03/04 06:44:31;;;;;;;;;;;77.00;2227.20;;;;;;5043517;28;19932;-77
2022/03/04 06:46:56;;;;;;;;;;;76.90;2227.20;;;;;;5042198;28;20381;-78
2022/03/04 06:49:22;;;;;;;;;;;77.20;2227.20;;;;;;5042091;28;19905;-81
2022/03/04 06:51:48;;;;;;;;;;;77.50;2227.20;;;;;;5042052;28;19995;-78
2022/03/04 06:54:13;;;;;;;;;;;77.70;2227.20;;;;;;5044811;28;19978;-81
2022/03/04 06:56:39;;;;;;;;;;;102.40;2227.20;;;;;;5043805;28;19912;-79
2022/03/04 06:59:05;;;;;;;;;;;102.40;2227.20;;;;;;5045691;28;19904;-78
2022/03/04 07:01:30;;;;;;;;;;;77.50;2227.20;;;;;;5043890;28;19905;-79
2022/03/04 07:03:56;;;;;;;;;;;77.70;2227.20;;;;;;5042039;28;19924;-80
2022/03/04 07:06:22;;;;;;;;;;;102.50;2227.20;;;;;;5044374;28;19905;-82
2022/03/04 07:08:47;;;;;;;;;;;102.50;2227.20;;;;;;5042699;28;20301;-81
2022/03/04 07:11:13;;;;;;;;;;;102.70;2227.20;;;;;;5039792;28;19972;-80
2022/03/04 07:13:38;;;;;;;;;;;103.00;2227.20;;;;;;5040782;28;19978;-79
2022/03/04 07:16:04;;;;;;;;;;;102.90;2227.20;;;;;;5040010;28;19912;-77
2022/03/04 07:18:30;;;;;;;;;;;102.90;2227.20;;;;;;5037192;28;20347;-81
2022/03/04 07:20:57;;;;;;;;;;;103.00;2227.20;;;;;;5036891;28;20007;-78
2022/03/04 07:23:23;;;;;;;;;;;103.00;2227.20;;;;;;5040716;28;19915;-80
2022/03/04 07:25:48;;;;;;;;;;;103.20;2227.20;;;;;;5042783;28;19996;-82
2022/03/04 07:28:14;;;;;;;;;;;103.20;2227.20;;;;;;5051420;28;20365;-79
2022/03/04 07:30:40;;;;;;;;;;;128.20;2252.80;;;;;;5054097;28;19991;-79
2022/03/04 07:33:05;;;;;;;;;;;128.20;2227.20;;;;;;5051880;28;19904;-81
2022/03/04 07:35:31;;;;;;;;;;;128.40;2227.20;;;;;;5033678;28;19918;-84
2022/03/04 07:37:57;;;;;;;;;;;128.30;2201.60;;;;;;5042224;28;19909;-86
2022/03/04 07:40:23;;;;;;;;;;;128.50;2201.60;;;;;;5042337;28;19905;-87
2022/03/04 07:42:48;;;;;;;;;;;128.70;2176.00;;;;;;5038992;28;20369;-86
2022/03/04 07:45:14;;;;;;;;;;;128.70;2176.00;;;;;;5044796;28;19923;-79
2022/03/04 07:47:41;;;;;;;;;;;128.80;2150.40;;;;;;5041863;28;21017;-85
2022/03/04 07:50:08;;;;;;;;;;;128.70;2124.80;;;;;;5042071;28;19913;-85
2022/03/04 07:52:34;;;;;;;;;;;128.60;2150.40;;;;;;5041713;28;19913;-83
2022/03/04 07:55:00;;;;;;;;;;;128.80;2150.40;;;;;;5041951;28;20009;-82
2022/03/04 07:57:25;;;;;;;;;;;128.90;2150.40;;;;;;5047622;28;19909;-82
2022/03/04 07:59:51;;;;;;;;;;;128.90;2150.40;;;;;;5056292;28;19935;-82
2022/03/04 08:02:17;;;;;;;;;;;153.70;2176.00;;;;;;5040887;28;19920;-84
2022/03/04 08:04:42;;;;;;;;;;;153.80;2176.00;;;;;;5056455;28;19916;-88
2022/03/04 08:07:08;;;;;;;;;;;153.70;2201.60;;;;;;5056854;28;20414;-83
2022/03/04 08:09:34;;;;;;;;;;;153.80;2227.20;;;;;;5056333;28;19916;-82
2022/03/04 08:11:59;;;;;;;;;;;153.80;2150.40;;;;;;5056157;28;19908;-80
2022/03/04 08:14:25;;;;;;;;;;;154.00;2201.60;;;;;;5056475;28;20004;-80
2022/03/04 08:16:51;;;;;;;;;;;154.20;2150.40;;;;;;5056426;28;19936;-80
2022/03/04 08:19:16;;;;;;;;;;;154.10;2176.00;;;;;;5055237;28;19999;-81
2022/03/04 08:21:43;;;;;;;;;;;154.40;2176.00;;;;;;5057190;28;19959;-82
2022/03/04 08:24:09;;;;;;;;;;;154.50;2150.40;;;;;;5056123;28;19966;-80
2022/03/04 08:26:38;;;;;;;;;;;179.20;2176.00;;;;;;5056012;28;19905;-80
2022/03/04 08:29:04;;;;;;;;;;;154.50;2176.00;;;;;;5050288;28;19967;-82
2022/03/04 08:31:30;;;;;;;;;;;154.50;2176.00;;;;;;5047602;28;19948;-84
2022/03/04 08:33:56;;;;;;;;;;;179.20;2176.00;;;;;;5045126;28;20363;-79
2022/03/04 08:36:21;;;;;;;;;;;179.40;2176.00;;;;;;5047751;28;19911;-81
2022/03/04 08:38:47;;;;;;;;;;;179.40;2201.60;;;;;;5048365;28;19905;-80
2022/03/04 08:41:13;;;;;;;;;;;179.40;2201.60;;;;;;5046965;28;20007;-79
2022/03/04 08:43:39;;;;;;;;;;;179.40;2150.40;;;;;;5047081;28;19936;-78
2022/03/04 08:46:05;;;;;;;;;;;179.50;2124.80;;;;;;5046391;28;19913;-78
2022/03/04 08:48:31;;;;;;;;;;;179.70;2124.80;;;;;;5043839;28;19905;-82
2022/03/04 08:50:57;;;;;;;;;;;179.70;2150.40;;;;;;5040497;28;19920;-80
2022/03/04 08:53:22;;;;;;;;;;;179.70;2073.60;;;;;;5034635;28;20271;-80
2022/03/04 08:55:50;;;;;;;;;;;179.80;2048.00;;;;;;5036375;28;20279;-80
2022/03/04 08:58:16;;;;;;;;;;;179.70;2048.00;;;;;;5035172;28;20382;-80
2022/03/04 09:00:41;;;;;;;;;;;179.70;2073.60;;;;;;5036147;28;19912;-81
2022/03/04 09:03:08;;;;;;;;;;;179.70;2099.20;;;;;;5035158;28;19905;-81
2022/03/04 09:05:35;;;;;;;;;;;179.90;2099.20;;;;;;5034954;28;19921;-81
2022/03/04 09:08:01;;;;;;;;;;;180.10;2073.60;;;;;;5035228;28;20004;-80
2022/03/04 09:10:27;;;;;;;;;;;180.10;2073.60;;;;;;5035029;28;19967;-80
2022/03/04 09:12:52;;;;;;;;;;;180.10;2124.80;;;;;;5034769;28;19923;-80
2022/03/04 09:15:18;;;;;;;;;;;204.90;2099.20;;;;;;5035246;28;19909;-80
2022/03/04 09:17:44;;;;;;;;;;;204.90;2099.20;;;;;;5036135;28;19991;-80
2022/03/04 09:20:10;;;;;;;;;;;205.00;2099.20;;;;;;5035761;28;20393;-79
2022/03/04 09:22:35;;;;;;;;;;;205.20;2073.60;;;;;;5041271;28;20327;-80
2022/03/04 09:25:01;;;;;;;;;;;205.40;2099.20;;;;;;5046563;28;19999;-80
2022/03/04 09:27:27;;;;;;;;;;;205.60;2073.60;;;;;;5044902;28;19905;-81
2022/03/04 09:29:53;;;;;;;;;;;230.40;2048.00;;;;;;5044528;28;19917;-81
2022/03/04 09:32:18;;;;;;;;;;;230.40;2048.00;;;;;;5041021;28;19956;-80
2022/03/04 09:34:44;;;;;;;;;;;230.60;2022.40;;;;;;5038217;28;19921;-81
2022/03/04 09:37:09;;;;;;;;;;;230.70;1971.20;;;;;;5044422;28;19911;-81
2022/03/04 09:39:35;;;;;;;;;;;230.70;1945.60;;;;;;5045690;28;19966;-81
2022/03/04 09:42:01;;;;;;;;;;;230.80;1971.20;;;;;;5040981;28;19909;-89
2022/03/04 09:44:26;;;;;;;;;;;231.00;2022.40;;;;;;5034376;28;19916;-80
2022/03/04 09:46:52;;;;;;;;;;;231.00;1971.20;;;;;;5035603;28;19905;-80
2022/03/04 09:49:18;;;;;;;;;;;231.10;1945.60;;;;;;5034177;28;19932;-82
2022/03/04 09:51:44;;;;;;;;;;;231.10;1971.20;;;;;;5035664;28;19951;-81
2022/03/04 09:54:09;;;;;;;;;;;231.20;1920.00;;;;;;5041787;28;20325;-79
2022/03/04 09:56:35;;;;;;;;;;;256.10;1920.00;;;;;;5045771;28;19959;-80
2022/03/04 09:59:01;;;;;;;;;;;256.30;1945.60;;;;;;5036509;28;19905;-79
2022/03/04 10:01:26;;;;;;;;;;;256.40;1945.60;;;;;;5035236;28;19958;-82
2022/03/04 10:03:53;;;;;;;;;;;256.20;1920.00;;;;;;5034901;28;19924;-81
2022/03/04 10:06:19;;;;;;;;;;;256.20;1920.00;;;;;;5042337;28;19909;-82
2022/03/04 10:08:46;;;;;;;;;;;256.00;1894.40;;;;;;5044293;28;19908;-80
2022/03/04 10:11:12;;;;;;;;;;;256.00;1894.40;;;;;;5053821;28;19917;-82
2022/03/04 10:13:45;;;;;;;;;;;256.30;1894.40;;;;;;5053540;28;19984;-78
2022/03/04 10:16:23;;;;;;;;;;;256.40;1868.80;;;;;;5055019;28;19909;-88
2022/03/04 10:19:07;;;;;;;;;;;256.50;1868.80;;;;;;5052902;28;19905;-79
2022/03/04 10:21:52;;;;;;;;;;;256.50;1868.80;;;;;;5053609;28;19904;-80
2022/03/04 10:24:20;;;;;;;;;;;256.80;1843.20;;;;;;5053438;28;19911;-83
2022/03/04 10:26:45;;;;;;;;;;;281.60;1843.20;;;;;;5053681;28;19909;-79
2022/03/04 10:29:18;;;;;;;;;;;281.80;1817.60;;;;;;5053657;28;19912;-80
2022/03/04 10:32:02;;;;;;;;;;;281.90;1792.00;;;;;;5053616;28;19919;-86
2022/03/04 10:34:54;;;;;;;;;;;281.90;1817.60;;;;;;5052406;28;19940;-83
2022/03/04 10:37:20;;;;;;;;;;;281.70;1817.60;;;;;;5051716;28;19905;-82
2022/03/04 10:40:04;;;;;;;;;;;281.90;1792.00;;;;;;5054601;28;19911;-81
2022/03/04 10:42:41;;;;;;;;;;;282.00;1766.40;;;;;;5035534;28;19909;-80
2022/03/04 10:45:10;;;;;;;;;;;281.90;1740.80;;;;;;5034719;28;19909;-81
2022/03/04 10:47:44;;;;;;;;;;;281.70;1740.80;;;;;;5036139;28;19923;-80
2022/03/04 10:50:10;;;;;;;;;;;281.60;1740.80;;;;;;5044915;28;19963;-81
2022/03/04 10:52:59;;;;;;;;;;;256.80;1740.80;;;;;;5041787;28;19905;-80
2022/03/04 10:55:26;;;;;;;;;;;256.50;1740.80;;;;;;4965227;28;19906;-81
2022/03/04 10:57:52;;;;;;;;;;;256.50;1766.40;;;;;;4964627;28;20351;-80
2022/03/04 11:00:24;;;;;;;;;;;256.30;1766.40;;;;;;4960619;28;19998;-80
2022/03/04 11:02:51;;;;;;;;;;;256.00;1792.00;;;;;;4976442;28;19933;-80
2022/03/04 11:05:17;;;;;;;;;;;256.00;1817.60;;;;;;4992601;28;19981;-80
2022/03/04 11:07:43;;;;;;;;;;;231.30;1817.60;;;;;;4968163;28;20380;-80
2022/03/04 11:10:08;;;;;;;;;;;231.20;1817.60;;;;;;4967020;28;19973;-80
2022/03/04 11:12:34;;;;;;;;;;;231.20;1843.20;;;;;;4983715;28;19914;-80
2022/03/04 11:15:01;;;;;;;;;;;231.30;1843.20;;;;;;4981738;28;19916;-81
2022/03/04 11:17:28;;;;;;;;;;;231.20;1843.20;;;;;;4958670;28;19917;-82
2022/03/04 11:19:54;;;;;;;;;;;231.20;1894.40;;;;;;4983502;28;19914;-80
2022/03/04 11:22:19;;;;;;;;;;;231.30;1894.40;;;;;;4976730;28;19972;-82
2022/03/04 11:24:46;;;;;;;;;;;231.30;1843.20;;;;;;4992539;28;19910;-79
2022/03/04 11:27:14;;;;;;;;;;;256.00;1843.20;;;;;;4976606;28;19906;-80
2022/03/04 11:29:40;;;;;;;;;;;256.10;1817.60;;;;;;4977822;28;20245;-81
2022/03/04 11:32:06;;;;;;;;;;;256.20;1817.60;;;;;;5019931;28;19904;-80
2022/03/04 11:34:44;;;;;;;;;;;256.20;1817.60;;;;;;5058197;28;19911;-82
2022/03/04 11:37:16;;;;;;;;;;;231.30;1868.80;;;;;;5058172;28;19912;-82
2022/03/04 11:40:01;;;;;;;;;;;231.30;1868.80;;;;;;5056905;28;20417;-82
2022/03/04 11:42:35;;;;;;;;;;;231.30;1894.40;;;;;;5056829;28;20003;-80
2022/03/04 11:45:02;;;;;;;;;;;231.30;1920.00;;;;;;5056870;28;19919;-80
2022/03/04 11:47:30;;;;;;;;;;;231.30;1894.40;;;;;;5058187;28;19905;-80
2022/03/04 11:49:56;;;;;;;;;;;231.20;1920.00;;;;;;5057266;28;20383;-81
2022/03/04 11:52:26;;;;;;;;;;;256.00;1894.40;;;;;;5048168;28;20011;-82
2022/03/04 11:54:52;;;;;;;;;;;256.00;1894.40;;;;;;5037849;28;19916;-81
2022/03/04 11:57:27;;;;;;;;;;;256.00;1894.40;;;;;;5037921;28;19905;-82
2022/03/04 11:59:56;;;;;;;;;;;256.00;1945.60;;;;;;5036576;28;19952;-81
2022/03/04 12:02:26;;;;;;;;;;;256.00;1920.00;;;;;;5036487;28;19951;-81
2022/03/04 12:05:10;;;;;;;;;;;231.30;1945.60;;;;;;5035949;28;19917;-82
2022/03/04 12:07:36;;;;;;;;;;;256.00;1920.00;;;;;;5036551;28;19905;-81
2022/03/04 12:10:03;;;;;;;;;;;256.00;1920.00;;;;;;5036276;28;19992;-82
2022/03/04 12:12:28;;;;;;;;;;;231.30;1894.40;;;;;;5035686;28;19916;-81
2022/03/04 12:14:55;;;;;;;;;;;231.20;1894.40;;;;;;5036421;28;19913;-82
2022/03/04 12:17:21;;;;;;;;;;;231.20;1894.40;;;;;;5037371;28;20008;-80
2022/03/04 12:19:48;;;;;;;;;;;256.00;1945.60;;;;;;5035806;28;19905;-81
2022/03/04 12:22:15;;;;;;;;;;;230.90;1971.20;;;;;;5035801;28;19952;-81
2022/03/04 12:24:54;;;;;;;;;;;230.90;1996.80;;;;;;5035983;28;19905;-81
2022/03/04 12:27:37;;;;;;;;;;;230.90;1996.80;;;;;;5036441;28;19905;-82
2022/03/04 12:30:19;;;;;;;;;;;230.90;1996.80;;;;;;5036071;28;19919;-80
2022/03/04 12:32:52;;;;;;;;;;;230.80;1971.20;;;;;;5044655;28;19905;-81
2022/03/04 12:35:18;;;;;;;;;;;230.80;1996.80;;;;;;5041937;28;20389;-81
2022/03/04 12:37:44;;;;;;;;;;;230.80;1945.60;;;;;;5044457;28;19912;-82
2022/03/04 12:40:10;;;;;;;;;;;230.90;1971.20;;;;;;5039200;28;19905;-81
2022/03/04 12:42:35;;;;;;;;;;;231.10;1945.60;;;;;;5043859;28;19962;-81
2022/03/04 12:45:01;;;;;;;;;;;231.20;1945.60;;;;;;5044730;28;19909;-82
2022/03/04 12:47:27;;;;;;;;;;;231.10;1920.00;;;;;;5038232;28;19912;-80
2022/03/04 12:49:54;;;;;;;;;;;231.10;1971.20;;;;;;5046739;28;19994;-80
2022/03/04 12:52:20;;;;;;;;;;;231.20;1945.60;;;;;;5040660;28;20282;-80
2022/03/04 12:54:46;;;;;;;;;;;231.20;1920.00;;;;;;5035409;28;19905;-81
2022/03/04 12:57:11;;;;;;;;;;;231.20;1945.60;;;;;;5035167;28;19912;-82
2022/03/04 12:59:44;;;;;;;;;;;231.20;1920.00;;;;;;5035331;28;20428;-83
2022/03/04 13:02:09;;;;;;;;;;;231.00;1894.40;;;;;;5036628;28;19905;-81
2022/03/04 13:04:35;;;;;;;;;;;230.70;1894.40;;;;;;5035959;28;20445;-81
2022/03/04 13:07:01;;;;;;;;;;;230.60;1920.00;;;;;;5036516;28;19905;-79
2022/03/04 13:09:27;;;;;;;;;;;230.40;2073.60;;;;;;5034843;28;19909;-87
2022/03/04 13:11:54;;;;;;;;;;;230.40;2150.40;;;;;;5034967;28;19913;-83
2022/03/04 13:14:20;;;;;;;;;;;205.50;2252.80;;;;;;5034776;28;19909;-78
2022/03/04 13:16:49;;;;;;;;;;;205.20;2252.80;;;;;;5036162;28;19944;-77
2022/03/04 13:19:17;;;;;;;;;;;205.00;2252.80;;;;;;5035250;28;20351;-77
2022/03/04 13:21:42;;;;;;;;;;;204.90;2252.80;;;;;;5034592;28;19911;-78
2022/03/04 13:24:12;;;;;;;;;;;180.10;2252.80;;;;;;5034821;28;19996;-78
2022/03/04 13:26:44;;;;;;;;;;;204.80;2252.80;;;;;;5034778;28;19916;-79
2022/03/04 13:29:11;;;;;;;;;;;180.00;2252.80;;;;;;5035584;28;20371;-82
2022/03/04 13:31:37;;;;;;;;;;;180.00;2252.80;;;;;;5035819;28;20012;-77
2022/03/04 13:34:06;;;;;;;;;;;180.00;2252.80;;;;;;5035598;28;19952;-78
2022/03/04 13:36:39;;;;;;;;;;;180.00;2252.80;;;;;;5034142;28;20346;-79
2022/03/04 13:39:07;;;;;;;;;;;179.80;2252.80;;;;;;5035214;28;19909;-78
2022/03/04 13:41:33;;;;;;;;;;;179.70;2252.80;;;;;;5035330;28;19912;-78